Time;durP1;ratioP1;P1;durP2;ratioP2;P2;SDS_P1;SDS_P2;PMS_P1;PMS_P2;Temp;Humidity;BMP_temperature;BMP_pressure;BME280_temperature;BME280_humidity;BME280_pressure;Samples;Min_cycle;Max_cycle;Signal;HPM_P1;HPM_P2
2022/09/13 00:01:11;;;;;;;;;;;;;;;;;;4998372;28;1327;-66
2022/09/13 00:03:36;;;;;;;;;;;;;;;;;;5002519;28;1202;-66
2022/09/13 00:06:13;;;;;;;;;;;;;;;;;;4998334;28;2410;-66
2022/09/13 00:08:38;;;;;;;;;;;;;;;;;;5000834;28;1315;-66
2022/09/13 00:11:03;;;;;;;;;;;;;;;;;;4999125;28;1338;-66
2022/09/13 00:13:28;;;;;;;;;;;;;;;;;;4999870;28;1252;-66
2022/09/13 00:15:54;;;;;;;;;;;;;;;;;;4998099;28;1495;-65
2022/09/13 00:18:19;;;;;;;;;;;;;;;;;;5000999;28;1316;-65
2022/09/13 00:20:44;;;;;;;;;;;;;;;;;;5000303;28;1440;-66
2022/09/13 00:23:10;;;;;;;;;;;;;;;;;;4995996;28;1333;-66
2022/09/13 00:25:35;;;;;;;;;;;;;;;;;;5000143;28;1964;-66
2022/09/13 00:28:00;;;;;;;;;;;;;;;;;;4997850;28;1358;-67
2022/09/13 00:30:25;;;;;;;;;;;;;;;;;;4998729;28;1351;-67
2022/09/13 00:32:51;;;;;;;;;;;;;;;;;;5001205;28;1390;-67
2022/09/13 00:35:16;;;;;;;;;;;;;;;;;;5000342;28;1319;-66
2022/09/13 00:37:41;;;;;;;;;;;;;;;;;;4999976;28;1283;-66
2022/09/13 00:40:06;;;;;;;;;;;;;;;;;;5001912;28;1307;-65
2022/09/13 00:42:32;;;;;;;;;;;;;;;;;;4999617;28;1311;-66
2022/09/13 00:45:07;;;;;;;;;;;;;;;;;;4999945;28;1906;-66
2022/09/13 00:47:35;;;;;;;;;;;;;;;;;;5003761;28;1170;-66
2022/09/13 00:50:03;;;;;;;;;;;;;;;;;;5005070;28;1202;-67
2022/09/13 00:52:31;;;;;;;;;;;;;;;;;;5002771;28;1555;-68
2022/09/13 00:55:00;;;;;;;;;;;;;;;;;;5001044;28;1308;-66
2022/09/13 00:57:25;;;;;;;;;;;;;;;;;;5001320;28;1313;-67
2022/09/13 00:59:55;;;;;;;;;;;;;;;;;;5007866;28;1274;-66
2022/09/13 01:02:20;;;;;;;;;;;;;;;;;;5002121;28;1658;-66
2022/09/13 01:04:45;;;;;;;;;;;;;;;;;;5002641;28;1902;-65
2022/09/13 01:07:12;;;;;;;;;;;;;;;;;;5002527;28;1393;-65
2022/09/13 01:09:40;;;;;;;;;;;;;;;;;;5007567;28;1322;-66
2022/09/13 01:12:20;;;;;;;;;;;;;;;;;;5003254;28;1318;-65
2022/09/13 01:14:46;;;;;;;;;;;;;;;;;;5002039;28;1342;-64
2022/09/13 01:17:11;;;;;;;;;;;;;;;;;;5001078;28;1310;-64
2022/09/13 01:19:37;;;;;;;;;;;;;;;;;;5004644;28;1257;-65
2022/09/13 01:22:20;;;;;;;;;;;;;;;;;;5003151;28;1405;-64
2022/09/13 01:24:54;;;;;;;;;;;;;;;;;;5001477;28;1955;-65
2022/09/13 01:27:38;;;;;;;;;;;;;;;;;;5002190;28;1283;-65
2022/09/13 01:30:10;;;;;;;;;;;;;;;;;;5003667;28;1336;-64
2022/09/13 01:32:44;;;;;;;;;;;;;;;;;;4998713;28;1320;-64
2022/09/13 01:35:35;;;;;;;;;;;;;;;;;;4994634;28;1253;-62
2022/09/13 01:38:16;;;;;;;;;;;;;;;;;;5000686;28;1391;-62
2022/09/13 01:40:42;;;;;;;;;;;;;;;;;;5005228;28;1413;-64
2022/09/13 01:43:26;;;;;;;;;;;;;;;;;;5001029;28;1690;-64
2022/09/13 01:45:55;;;;;;;;;;;;;;;;;;4998955;28;1894;-64
2022/09/13 01:48:23;;;;;;;;;;;;;;;;;;5000370;28;1370;-64
2022/09/13 01:50:48;;;;;;;;;;;;;;;;;;5001088;28;1292;-64
2022/09/13 01:53:19;;;;;;;;;;;;;;;;;;5002009;28;1432;-64
2022/09/13 01:55:50;;;;;;;;;;;;;;;;;;4997497;28;1240;-64
2022/09/13 01:58:27;;;;;;;;;;;;;;;;;;5002842;28;1557;-64
2022/09/13 02:00:55;;;;;;;;;;;;;;;;;;5001256;28;1317;-65
2022/09/13 02:03:28;;;;;;;;;;;;;;;;;;4998423;28;1198;-65
2022/09/13 02:05:55;;;;;;;;;;;;;;;;;;5002222;28;1902;-65
2022/09/13 02:08:23;;;;;;;;;;;;;;;;;;4998329;28;1410;-65
2022/09/13 02:11:07;;;;;;;;;;;;;;;;;;5003143;28;1892;-65
2022/09/13 02:13:35;;;;;;;;;;;;;;;;;;4998051;28;1559;-65
2022/09/13 02:16:04;;;;;;;;;;;;;;;;;;4996921;28;1289;-65
2022/09/13 02:18:33;;;;;;;;;;;;;;;;;;5002533;28;1326;-65
2022/09/13 02:21:00;;;;;;;;;;;;;;;;;;5003690;28;1432;-64
2022/09/13 02:23:31;;;;;;;;;;;;;;;;;;5000840;28;1209;-64
2022/09/13 02:25:57;;;;;;;;;;;;;;;;;;5000191;28;1906;-64
2022/09/13 02:28:27;;;;;;;;;;;;;;;;;;5002709;28;1268;-65
2022/09/13 02:30:53;;;;;;;;;;;;;;;;;;5002463;28;1366;-64
2022/09/13 02:33:22;;;;;;;;;;;;;;;;;;5001683;28;1328;-65
2022/09/13 02:35:50;;;;;;;;;;;;;;;;;;4999821;28;1341;-65
2022/09/13 02:38:20;;;;;;;;;;;;;;;;;;5001608;28;1597;-65
2022/09/13 02:40:48;;;;;;;;;;;;;;;;;;5000947;28;1460;-64
2022/09/13 02:43:16;;;;;;;;;;;;;;;;;;4998056;28;1314;-64
2022/09/13 02:45:46;;;;;;;;;;;;;;;;;;4995717;28;1897;-64
2022/09/13 02:48:17;;;;;;;;;;;;;;;;;;5000570;28;1237;-64
2022/09/13 02:50:55;;;;;;;;;;;;;;;;;;5009865;28;1519;-64
2022/09/13 02:53:26;;;;;;;;;;;;;;;;;;4999707;28;1226;-64
2022/09/13 02:56:01;;;;;;;;;;;;;;;;;;5001028;28;1295;-64
2022/09/13 02:58:31;;;;;;;;;;;;;;;;;;5002370;28;1227;-62
2022/09/13 03:00:56;;;;;;;;;;;;;;;;;;5000369;28;1351;-64
2022/09/13 03:03:22;;;;;;;;;;;;;;;;;;5001896;28;1228;-64
2022/09/13 03:05:48;;;;;;;;;;;;;;;;;;5001431;28;1902;-64
2022/09/13 03:08:15;;;;;;;;;;;;;;;;;;5000204;28;1547;-64
2022/09/13 03:10:50;;;;;;;;;;;;;;;;;;5003113;28;1327;-64
2022/09/13 03:13:15;;;;;;;;;;;;;;;;;;5001237;28;1262;-64
2022/09/13 03:15:46;;;;;;;;;;;;;;;;;;4998732;28;1317;-64
2022/09/13 03:18:11;;;;;;;;;;;;;;;;;;4998812;28;1272;-64
2022/09/13 03:20:40;;;;;;;;;;;;;;;;;;5005002;28;1579;-64
2022/09/13 03:23:14;;;;;;;;;;;;;;;;;;5000251;28;1562;-64
2022/09/13 03:25:51;;;;;;;;;;;;;;;;;;4997539;28;1902;-64
2022/09/13 03:28:16;;;;;;;;;;;;;;;;;;4999765;28;1258;-64
2022/09/13 03:30:46;;;;;;;;;;;;;;;;;;4998410;28;1374;-64
2022/09/13 03:33:11;;;;;;;;;;;;;;;;;;5004993;28;1275;-65
2022/09/13 03:35:40;;;;;;;;;;;;;;;;;;5001275;28;1275;-64
2022/09/13 03:38:16;;;;;;;;;;;;;;;;;;5000389;28;1554;-64
2022/09/13 03:40:49;;;;;;;;;;;;;;;;;;4998380;28;1293;-64
2022/09/13 03:43:23;;;;;;;;;;;;;;;;;;5003812;28;1210;-65
2022/09/13 03:45:51;;;;;;;;;;;;;;;;;;4998071;28;1985;-64
2022/09/13 03:48:17;;;;;;;;;;;;;;;;;;5001273;28;1327;-64
2022/09/13 03:50:44;;;;;;;;;;;;;;;;;;5001716;28;1286;-64
2022/09/13 03:53:10;;;;;;;;;;;;;;;;;;5001186;28;1642;-64
2022/09/13 03:58:14;;;;;;;;;;;;;;;;;;5055774;28;1617;-68
2022/09/13 04:00:40;;;;;;;;;;;;;;;;;;5056581;28;1326;-68
2022/09/13 04:03:05;;;;;;;;;;;;;;;;;;5059483;28;1263;-68
2022/09/13 04:05:30;;;;;;;;;;;;;;;;;;5059899;28;1905;-68
2022/09/13 04:07:56;;;;;;;;;;;;;;;;;;5050528;28;1427;-68
2022/09/13 04:10:23;;;;;;;;;;;;;;;;;;5049035;28;1362;-68
2022/09/13 04:12:48;;;;;;;;;;;;;;;;;;5053514;28;1352;-68
2022/09/13 04:15:13;;;;;;;;;;;;;;;;;;5049309;28;1233;-68
2022/09/13 04:17:38;;;;;;;;;;;;;;;;;;5049210;28;1392;-68
2022/09/13 04:20:04;;;;;;;;;;;;;;;;;;5045237;28;1281;-68
2022/09/13 04:22:30;;;;;;;;;;;;;;;;;;5047267;28;1441;-68
2022/09/13 04:24:55;;;;;;;;;;;;;;;;;;5048615;28;1957;-67
2022/09/13 04:27:21;;;;;;;;;;;;;;;;;;5049205;28;1445;-67
2022/09/13 04:29:46;;;;;;;;;;;;;;;;;;5031491;28;1425;-67
2022/09/13 04:32:11;;;;;;;;;;;;;;;;;;5048047;28;1566;-67
2022/09/13 04:34:36;;;;;;;;;;;;;;;;;;5047618;28;1226;-67
2022/09/13 04:37:01;;;;;;;;;;;;;;;;;;5051688;28;1322;-66
2022/09/13 04:39:27;;;;;;;;;;;;;;;;;;5045109;28;1192;-68
2022/09/13 04:41:54;;;;;;;;;;;;;;;;;;5052423;28;1353;-73
2022/09/13 04:44:20;;;;;;;;;;;;;;;;;;5048835;28;1933;-71
2022/09/13 04:46:47;;;;;;;;;;;;;;;;;;5053321;28;1509;-72
2022/09/13 04:49:12;;;;;;;;;;;;;;;;;;5052232;28;1184;-72
2022/09/13 04:51:38;;;;;;;;;;;;;;;;;;5058933;28;1748;-73
2022/09/13 04:54:04;;;;;;;;;;;;;;;;;;5054771;28;1565;-71
2022/09/13 04:56:29;;;;;;;;;;;;;;;;;;5054345;28;1587;-70
2022/09/13 04:58:54;;;;;;;;;;;;;;;;;;5029503;28;1221;-75
2022/09/13 05:01:20;;;;;;;;;;;;;;;;;;5047842;28;1158;-74
2022/09/13 05:03:46;;;;;;;;;;;;;;;;;;5051352;28;1757;-73
2022/09/13 05:06:12;;;;;;;;;;;;;;;;;;5041183;28;1930;-73
2022/09/13 05:08:38;;;;;;;;;;;;;;;;;;5040191;28;855;-73
2022/09/13 05:11:04;;;;;;;;;;;;;;;;;;5040007;28;764;-73
2022/09/13 05:13:29;;;;;;;;;;;;;;;;;;5039959;28;1065;-74
2022/09/13 05:15:55;;;;;;;;;;;;;;;;;;5041285;28;1499;-74
2022/09/13 05:18:21;;;;;;;;;;;;;;;;;;5039845;28;748;-74
2022/09/13 05:20:46;;;;;;;;;;;;;;;;;;5040238;28;819;-74
2022/09/13 05:23:11;;;;;;;;;;;;;;;;;;5040108;28;1016;-74
2022/09/13 05:25:36;;;;;;;;;;;;;;;;;;5039583;28;1943;-74
2022/09/13 05:28:01;;;;;;;;;;;;;;;;;;5040258;28;1187;-73
2022/09/13 05:30:27;;;;;;;;;;;;;;;;;;5039940;28;798;-73
2022/09/13 05:32:52;;;;;;;;;;;;;;;;;;5044078;28;1570;-74
2022/09/13 05:35:17;;;;;;;;;;;;;;;;;;5042806;28;787;-73
2022/09/13 05:37:42;;;;;;;;;;;;;;;;;;5043459;28;1193;-74
2022/09/13 05:40:07;;;;;;;;;;;;;;;;;;5043212;28;926;-73
2022/09/13 05:42:33;;;;;;;;;;;;;;;;;;5043411;28;787;-74
2022/09/13 05:44:58;;;;;;;;;;;;;;;;;;5042642;28;1890;-73
2022/09/13 05:47:23;;;;;;;;;;;;;;;;;;5061656;28;1559;-73
2022/09/13 05:49:48;;;;;;;;;;;;;;;;;;5061557;28;1476;-73
2022/09/13 05:52:13;;;;;;;;;;;;;;;;;;5063128;28;799;-73
2022/09/13 05:54:38;;;;;;;;;;;;;;;;;;5062425;28;791;-73
2022/09/13 05:57:04;;;;;;;;;;;;;;;;;;5063046;28;1409;-73
2022/09/13 05:59:30;;;;;;;;;;;;;;;;;;5063080;28;977;-73
2022/09/13 06:01:55;;;;;;;;;;;;;;;;;;5063351;28;838;-73
2022/09/13 06:04:20;;;;;;;;;;;;;;;;;;5043222;28;1894;-73
2022/09/13 06:06:46;;;;;;;;;;;;;;;;;;5042536;28;1260;-73
2022/09/13 06:09:11;;;;;;;;;;;;;;;;;;5042606;28;1452;-73
2022/09/13 06:11:37;;;;;;;;;;;;;;;;;;5043197;28;854;-73
2022/09/13 06:14:02;;;;;;;;;;;;;;;;;;5043004;28;914;-73
2022/09/13 06:16:27;;;;;;;;;;;;;;;;;;5041799;28;1214;-73
2022/09/13 06:18:52;;;;;;;;;;;;;;;;;;5043127;28;1527;-73
2022/09/13 06:21:19;;;;;;;;;;;;;;;;;;5063153;28;807;-73
2022/09/13 06:23:45;;;;;;;;;;;;;;;;;;5062595;28;892;-73
2022/09/13 06:26:12;;;;;;;;;;;;;;;;;;5062136;28;1902;-73
2022/09/13 06:28:37;;;;;;;;;;;;;;;;;;5062730;28;989;-74
2022/09/13 06:31:05;;;;;;;;;;;;;;;;;;5062421;28;787;-73
2022/09/13 06:33:30;;;;;;;;;;;;;;;;;;5062681;28;854;-73
2022/09/13 06:35:59;;;;;;;;;;;;;;;;;;5060392;28;1483;-73
2022/09/13 06:38:24;;;;;;;;;;;;;;;;;;5062008;28;941;-73
2022/09/13 06:40:58;;;;;;;;;;;;;;;;;;5062469;28;981;-73
2022/09/13 06:43:23;;;;;;;;;;;;;;;;;;5061455;28;847;-73
2022/09/13 06:45:48;;;;;;;;;;;;;;;;;;5043599;28;1898;-73
2022/09/13 06:48:13;;;;;;;;;;;;;;;;;;5062460;28;1005;-73
2022/09/13 06:50:38;;;;;;;;;;;;;;;;;;5062107;28;905;-73
2022/09/13 06:53:04;;;;;;;;;;;;;;;;;;5060559;28;1483;-73
2022/09/13 06:55:29;;;;;;;;;;;;;;;;;;5061677;28;1512;-73
2022/09/13 06:57:55;;;;;;;;;;;;;;;;;;5062083;28;1167;-73
2022/09/13 07:00:20;;;;;;;;;;;;;;;;;;5062333;28;827;-73
2022/09/13 07:02:49;;;;;;;;;;;;;;;;;;5062091;28;929;-73
2022/09/13 07:05:16;;;;;;;;;;;;;;;;;;5061589;28;1890;-73
2022/09/13 07:07:41;;;;;;;;;;;;;;;;;;5061477;28;1137;-73
2022/09/13 07:10:07;;;;;;;;;;;;;;;;;;5049427;28;1432;-73
2022/09/13 07:12:32;;;;;;;;;;;;;;;;;;5042059;28;820;-73
2022/09/13 07:14:57;;;;;;;;;;;;;;;;;;5041398;28;982;-73
2022/09/13 07:17:22;;;;;;;;;;;;;;;;;;5042065;28;1147;-73
2022/09/13 07:19:47;;;;;;;;;;;;;;;;;;5041953;28;898;-74
2022/09/13 07:22:13;;;;;;;;;;;;;;;;;;5041791;28;882;-73
2022/09/13 07:24:38;;;;;;;;;;;;;;;;;;5041200;28;1890;-73
2022/09/13 07:27:03;;;;;;;;;;;;;;;;;;5057298;28;1500;-73
2022/09/13 07:29:28;;;;;;;;;;;;;;;;;;5061549;28;1032;-74
2022/09/13 07:31:54;;;;;;;;;;;;;;;;;;5061336;28;905;-73
2022/09/13 07:34:20;;;;;;;;;;;;;;;;;;5061901;28;791;-73
2022/09/13 07:36:46;;;;;;;;;;;;;;;;;;5061070;28;1183;-73
2022/09/13 07:39:12;;;;;;;;;;;;;;;;;;5043766;28;902;-73
2022/09/13 07:41:37;;;;;;;;;;;;;;;;;;5061485;28;819;-74
2022/09/13 07:44:03;;;;;;;;;;;;;;;;;;5059927;28;1901;-74
2022/09/13 07:46:35;;;;;;;;;;;;;;;;;;5042289;28;1523;-74
2022/09/13 07:49:00;;;;;;;;;;;;;;;;;;5061346;28;881;-74
2022/09/13 07:51:30;;;;;;;;;;;;;;;;;;5061235;28;815;-74
2022/09/13 07:53:56;;;;;;;;;;;;;;;;;;5061226;28;795;-74
2022/09/13 07:56:22;;;;;;;;;;;;;;;;;;5060649;28;1251;-73
2022/09/13 07:58:48;;;;;;;;;;;;;;;;;;5041749;28;1361;-74
2022/09/13 08:01:18;;;;;;;;;;;;;;;;;;5041491;28;997;-74
2022/09/13 08:03:43;;;;;;;;;;;;;;;;;;5041130;28;902;-73
2022/09/13 08:06:09;;;;;;;;;;;;;;;;;;5040332;28;1898;-73
2022/09/13 08:08:35;;;;;;;;;;;;;;;;;;5041205;28;838;-73
2022/09/13 08:11:00;;;;;;;;;;;;;;;;;;5041013;28;1040;-73
2022/09/13 08:13:27;;;;;;;;;;;;;;;;;;5042458;28;1562;-73
2022/09/13 08:15:52;;;;;;;;;;;;;;;;;;5040447;28;1255;-73
2022/09/13 08:18:18;;;;;;;;;;;;;;;;;;5041289;28;760;-73
2022/09/13 08:20:43;;;;;;;;;;;;;;;;;;5041035;28;847;-73
2022/09/13 08:23:09;;;;;;;;;;;;;;;;;;5041115;28;792;-73
2022/09/13 08:25:35;;;;;;;;;;;;;;;;;;5040254;28;1955;-73
2022/09/13 08:28:01;;;;;;;;;;;;;;;;;;5040826;28;1192;-73
2022/09/13 08:30:32;;;;;;;;;;;;;;;;;;5041861;28;1428;-73
2022/09/13 08:32:57;;;;;;;;;;;;;;;;;;5040766;28;830;-73
2022/09/13 08:35:22;;;;;;;;;;;;;;;;;;5040274;28;978;-73
2022/09/13 08:37:47;;;;;;;;;;;;;;;;;;5040949;28;1244;-74
2022/09/13 08:40:14;;;;;;;;;;;;;;;;;;5040900;28;828;-74
2022/09/13 08:42:50;;;;;;;;;;;;;;;;;;5040708;28;903;-74
2022/09/13 08:45:15;;;;;;;;;;;;;;;;;;5039959;28;1910;-73
2022/09/13 08:48:01;;;;;;;;;;;;;;;;;;5041529;28;1566;-74
2022/09/13 08:50:29;;;;;;;;;;;;;;;;;;5022316;28;1505;-74
2022/09/13 08:53:11;;;;;;;;;;;;;;;;;;5040660;28;780;-73
2022/09/13 08:55:55;;;;;;;;;;;;;;;;;;5041305;28;1504;-73
2022/09/13 08:58:32;;;;;;;;;;;;;;;;;;5040684;28;775;-73
2022/09/13 09:01:01;;;;;;;;;;;;;;;;;;5040597;28;1069;-73
2022/09/13 09:03:39;;;;;;;;;;;;;;;;;;5047119;28;1480;-73
2022/09/13 09:06:10;;;;;;;;;;;;;;;;;;5059686;28;1898;-73
2022/09/13 09:08:45;;;;;;;;;;;;;;;;;;5063732;28;779;-73
2022/09/13 09:11:29;;;;;;;;;;;;;;;;;;5063767;28;862;-73
2022/09/13 09:14:06;;;;;;;;;;;;;;;;;;5063898;28;1020;-73
2022/09/13 09:16:35;;;;;;;;;;;;;;;;;;5045032;28;1168;-73
2022/09/13 09:19:24;;;;;;;;;;;;;;;;;;5062274;28;1412;-73
2022/09/13 09:21:50;;;;;;;;;;;;;;;;;;5051960;28;1494;-73
2022/09/13 09:24:24;;;;;;;;;;;;;;;;;;5045009;28;1894;-73
2022/09/13 09:26:51;;;;;;;;;;;;;;;;;;5043170;28;1302;-73
2022/09/13 09:29:35;;;;;;;;;;;;;;;;;;5043467;28;894;-73
2022/09/13 09:32:02;;;;;;;;;;;;;;;;;;5043584;28;866;-73
2022/09/13 09:34:42;;;;;;;;;;;;;;;;;;5043021;28;814;-73
2022/09/13 09:37:15;;;;;;;;;;;;;;;;;;5049913;28;1425;-73
2022/09/13 09:39:41;;;;;;;;;;;;;;;;;;5045524;28;1136;-73
2022/09/13 09:42:17;;;;;;;;;;;;;;;;;;5063485;28;783;-73
2022/09/13 09:44:45;;;;;;;;;;;;;;;;;;5062862;28;1898;-73
2022/09/13 09:47:13;;;;;;;;;;;;;;;;;;5062893;28;1250;-73
2022/09/13 09:50:08;;;;;;;;;;;;;;;;;;5063271;28;883;-73
2022/09/13 09:52:38;;;;;;;;;;;;;;;;;;5045299;28;914;-73
2022/09/13 09:55:19;;;;;;;;;;;;;;;;;;5061302;28;1562;-73
2022/09/13 09:58:05;;;;;;;;;;;;;;;;;;5054003;22;3676;-71
2022/09/13 10:00:32;;;;;;;;;;;;;;;;;;5022606;28;842;-71
2022/09/13 10:03:15;;;;;;;;;;;;;;;;;;5023022;28;843;-71
2022/09/13 10:05:41;;;;;;;;;;;;;;;;;;5022056;28;1898;-71
2022/09/13 10:08:07;;;;;;;;;;;;;;;;;;5037251;28;1549;-71
2022/09/13 10:10:34;;;;;;;;;;;;;;;;;;5042608;28;778;-71
2022/09/13 10:12:59;;;;;;;;;;;;;;;;;;5042617;28;823;-71
2022/09/13 10:15:28;;;;;;;;;;;;;;;;;;5041730;28;779;-71
2022/09/13 10:18:19;;;;;;;;;;;;;;;;;;5042269;28;1359;-71
2022/09/13 10:20:59;;;;;;;;;;;;;;;;;;5039177;28;1320;-71
2022/09/13 10:23:26;;;;;;;;;;;;;;;;;;5042481;28;830;-73
2022/09/13 10:26:01;;;;;;;;;;;;;;;;;;5041223;28;1959;-72
2022/09/13 10:28:28;;;;;;;;;;;;;;;;;;5042299;28;1168;-72
2022/09/13 10:30:56;;;;;;;;;;;;;;;;;;5042372;28;989;-72
2022/09/13 10:33:33;;;;;;;;;;;;;;;;;;5042104;28;846;-72
2022/09/13 10:36:04;;;;;;;;;;;;;;;;;;5041910;28;878;-72
2022/09/13 10:38:31;;;;;;;;;;;;;;;;;;5041639;28;1541;-72
2022/09/13 10:40:58;;;;;;;;;;;;;;;;;;5041785;28;1446;-70
2022/09/13 10:43:23;;;;;;;;;;;;;;;;;;5041950;28;850;-71
2022/09/13 10:45:50;;;;;;;;;;;;;;;;;;5041420;28;2028;-71
2022/09/13 10:48:16;;;;;;;;;;;;;;;;;;5040355;28;1374;-71
2022/09/13 10:50:59;;;;;;;;;;;;;;;;;;5041566;28;1462;-71
2022/09/13 10:53:31;;;;;;;;;;;;;;;;;;5041904;28;1538;-71
2022/09/13 10:55:56;;;;;;;;;;;;;;;;;;5041161;28;850;-71
2022/09/13 10:58:21;;;;;;;;;;;;;;;;;;5041630;28;1379;-71
2022/09/13 11:00:53;;;;;;;;;;;;;;;;;;5041927;28;846;-72
2022/09/13 11:03:18;;;;;;;;;;;;;;;;;;5040338;28;1289;-72
2022/09/13 11:05:54;;;;;;;;;;;;;;;;;;5041053;28;1902;-71
2022/09/13 11:08:24;;;;;;;;;;;;;;;;;;5041556;28;1284;-71
2022/09/13 11:11:08;;;;;;;;;;;;;;;;;;5041655;28;893;-71
2022/09/13 11:13:39;;;;;;;;;;;;;;;;;;5041439;28;897;-71
2022/09/13 11:16:14;;;;;;;;;;;;;;;;;;5040719;28;1474;-72
2022/09/13 11:18:58;;;;;;;;;;;;;;;;;;5040247;28;1439;-71
2022/09/13 11:21:30;;;;;;;;;;;;;;;;;;5041363;28;878;-71
2022/09/13 11:24:02;;;;;;;;;;;;;;;;;;5041349;28;1016;-71
2022/09/13 11:26:37;;;;;;;;;;;;;;;;;;5039106;28;1963;-71
2022/09/13 11:29:26;;;;;;;;;;;;;;;;;;5040534;28;1458;-71
2022/09/13 11:32:10;;;;;;;;;;;;;;;;;;5041156;28;1549;-71
2022/09/13 11:34:38;;;;;;;;;;;;;;;;;;5040589;28;905;-71
2022/09/13 11:37:17;;;;;;;;;;;;;;;;;;5041429;28;1184;-71
2022/09/13 11:39:58;;;;;;;;;;;;;;;;;;5041305;28;1044;-71
2022/09/13 11:42:26;;;;;;;;;;;;;;;;;;5041401;28;764;-71
2022/09/13 11:45:10;;;;;;;;;;;;;;;;;;5040174;28;1898;-71
2022/09/13 11:47:43;;;;;;;;;;;;;;;;;;5040833;28;1510;-71
2022/09/13 11:50:24;;;;;;;;;;;;;;;;;;5000274;28;997;-71
2022/09/13 11:52:58;;;;;;;;;;;;;;;;;;5001639;28;919;-71
2022/09/13 11:55:26;;;;;;;;;;;;;;;;;;5015690;28;1456;-71
2022/09/13 11:57:52;;;;;;;;;;;;;;;;;;5040940;28;1239;-71
2022/09/13 12:00:22;;;;;;;;;;;;;;;;;;5040885;28;933;-71
2022/09/13 12:03:09;;;;;;;;;;;;;;;;;;5040892;28;1497;-71
2022/09/13 12:05:38;;;;;;;;;;;;;;;;;;5039919;28;1953;-71
2022/09/13 12:08:09;;;;;;;;;;;;;;;;;;5040784;28;1232;-71
2022/09/13 12:10:44;;;;;;;;;;;;;;;;;;5040847;28;909;-71
2022/09/13 12:13:13;;;;;;;;;;;;;;;;;;5040674;28;891;-71
2022/09/13 12:15:39;;;;;;;;;;;;;;;;;;5040513;28;892;-71
2022/09/13 12:18:10;;;;;;;;;;;;;;;;;;5040493;28;1542;-71
2022/09/13 12:20:38;;;;;;;;;;;;;;;;;;5039502;28;1419;-71
2022/09/13 12:23:07;;;;;;;;;;;;;;;;;;5040536;28;814;-71
2022/09/13 12:25:37;;;;;;;;;;;;;;;;;;5039878;28;1952;-71
2022/09/13 12:28:10;;;;;;;;;;;;;;;;;;5038949;28;1370;-72
2022/09/13 12:30:43;;;;;;;;;;;;;;;;;;5040363;28;1494;-72
2022/09/13 12:33:12;;;;;;;;;;;;;;;;;;5040302;28;1462;-71
2022/09/13 12:36:03;;;;;;;;;;;;;;;;;;5038651;28;883;-71
2022/09/13 12:38:35;;;;;;;;;;;;;;;;;;5036536;28;1231;-71
2022/09/13 12:41:13;;;;;;;;;;;;;;;;;;5040315;28;1533;-71
2022/09/13 12:43:57;;;;;;;;;;;;;;;;;;5042640;28;903;-71
2022/09/13 12:46:31;;;;;;;;;;;;;;;;;;5042987;28;1897;-71
2022/09/13 12:49:15;;;;;;;;;;;;;;;;;;5043937;28;807;-71
2022/09/13 12:51:52;;;;;;;;;;;;;;;;;;5043950;28;1529;-72
2022/09/13 12:54:27;;;;;;;;;;;;;;;;;;5043981;28;834;-70
2022/09/13 12:56:52;;;;;;;;;;;;;;;;;;5043409;28;1200;-70
2022/09/13 12:59:34;;;;;;;;;;;;;;;;;;5043953;28;878;-70
2022/09/13 13:02:01;;;;;;;;;;;;;;;;;;5044196;28;822;-70
2022/09/13 13:04:32;;;;;;;;;;;;;;;;;;5042957;28;1955;-70
2022/09/13 13:07:02;;;;;;;;;;;;;;;;;;5043266;28;1399;-70
2022/09/13 13:09:41;;;;;;;;;;;;;;;;;;5043554;28;1467;-70
2022/09/13 13:12:07;;;;;;;;;;;;;;;;;;5043325;28;885;-70
2022/09/13 13:14:39;;;;;;;;;;;;;;;;;;5042527;28;989;-71
2022/09/13 13:17:22;;;;;;;;;;;;;;;;;;5043261;28;1160;-70
2022/09/13 13:19:47;;;;;;;;;;;;;;;;;;5043508;28;854;-70
2022/09/13 13:22:31;;;;;;;;;;;;;;;;;;5043452;28;900;-70
2022/09/13 13:24:57;;;;;;;;;;;;;;;;;;5042060;28;1890;-70
2022/09/13 13:27:38;;;;;;;;;;;;;;;;;;5043262;28;1160;-71
2022/09/13 13:30:23;;;;;;;;;;;;;;;;;;5043350;28;831;-71
2022/09/13 13:33:08;;;;;;;;;;;;;;;;;;5043088;28;1193;-71
2022/09/13 13:35:34;;;;;;;;;;;;;;;;;;5042574;28;917;-71
2022/09/13 13:38:17;;;;;;;;;;;;;;;;;;5042875;28;1557;-71
2022/09/13 13:40:45;;;;;;;;;;;;;;;;;;5042484;28;1410;-71
2022/09/13 13:43:25;;;;;;;;;;;;;;;;;;5043089;28;1060;-71
2022/09/13 13:45:58;;;;;;;;;;;;;;;;;;5042224;28;1957;-71
2022/09/13 13:48:37;;;;;;;;;;;;;;;;;;5043232;28;1169;-70
2022/09/13 13:51:37;;;;;;;;;;;;;;;;;;5042985;28;862;-70
2022/09/13 13:54:22;;;;;;;;;;;;;;;;;;4979139;28;1505;-72
2022/09/13 13:56:48;;;;;;;;;;;;;;;;;;5037624;28;1212;-72
2022/09/13 13:59:16;;;;;;;;;;;;;;;;;;5042808;28;814;-72
2022/09/13 14:01:47;;;;;;;;;;;;;;;;;;5042815;28;902;-72
2022/09/13 14:04:41;;;;;;;;;;;;;;;;;;5042960;28;961;-71
2022/09/13 14:07:18;;;;;;;;;;;;;;;;;;5029480;28;1297;-72
2022/09/13 14:09:44;;;;;;;;;;;;;;;;;;5043118;28;934;-72
2022/09/13 14:12:16;;;;;;;;;;;;;;;;;;5043070;28;1414;-71
2022/09/13 14:14:51;;;;;;;;;;;;;;;;;;5042151;28;922;-72
2022/09/13 14:17:31;;;;;;;;;;;;;;;;;;5042797;28;1240;-72
2022/09/13 14:20:03;;;;;;;;;;;;;;;;;;5042959;28;811;-71
2022/09/13 14:22:28;;;;;;;;;;;;;;;;;;5042582;28;839;-71
2022/09/13 14:24:55;;;;;;;;;;;;;;;;;;5041823;28;1955;-71
2022/09/13 14:27:21;;;;;;;;;;;;;;;;;;5042006;28;1541;-71
2022/09/13 14:29:48;;;;;;;;;;;;;;;;;;5042724;28;1486;-71
2022/09/13 14:32:18;;;;;;;;;;;;;;;;;;5042538;28;815;-71
2022/09/13 14:35:00;;;;;;;;;;;;;;;;;;5041485;28;1438;-71
2022/09/13 14:37:34;;;;;;;;;;;;;;;;;;5042430;28;1156;-71
2022/09/13 14:40:00;;;;;;;;;;;;;;;;;;5042265;28;1005;-71
2022/09/13 14:42:25;;;;;;;;;;;;;;;;;;5042094;28;1494;-71
2022/09/13 14:44:51;;;;;;;;;;;;;;;;;;5040043;28;1921;-72
2022/09/13 14:47:28;;;;;;;;;;;;;;;;;;5041984;28;1270;-72
2022/09/13 14:50:02;;;;;;;;;;;;;;;;;;5042527;28;877;-71
2022/09/13 14:52:33;;;;;;;;;;;;;;;;;;5042366;28;822;-72
2022/09/13 14:55:03;;;;;;;;;;;;;;;;;;5040389;28;1018;-71
2022/09/13 14:57:32;;;;;;;;;;;;;;;;;;5042195;28;1509;-72
2022/09/13 15:00:00;;;;;;;;;;;;;;;;;;5042081;28;834;-71
2022/09/13 15:02:28;;;;;;;;;;;;;;;;;;5042111;28;926;-71
2022/09/13 15:04:55;;;;;;;;;;;;;;;;;;5024189;28;1893;-71
2022/09/13 15:07:26;;;;;;;;;;;;;;;;;;5021116;28;1153;-71
2022/09/13 15:09:54;;;;;;;;;;;;;;;;;;5022161;28;1029;-71
2022/09/13 15:12:22;;;;;;;;;;;;;;;;;;5031542;28;1593;-71
2022/09/13 15:14:48;;;;;;;;;;;;;;;;;;5026226;28;1017;-71
2022/09/13 15:17:13;;;;;;;;;;;;;;;;;;5021726;28;1169;-71
2022/09/13 15:19:39;;;;;;;;;;;;;;;;;;5021957;28;858;-71
2022/09/13 15:22:12;;;;;;;;;;;;;;;;;;5021812;28;941;-71
2022/09/13 15:24:41;;;;;;;;;;;;;;;;;;5019765;28;1945;-72
2022/09/13 15:27:15;;;;;;;;;;;;;;;;;;5031440;28;1633;-71
2022/09/13 15:29:46;;;;;;;;;;;;;;;;;;5041861;28;1521;-71
2022/09/13 15:32:19;;;;;;;;;;;;;;;;;;5041751;28;1533;-71
2022/09/13 15:34:45;;;;;;;;;;;;;;;;;;5041343;28;965;-71
2022/09/13 15:37:11;;;;;;;;;;;;;;;;;;5040057;28;1526;-71
2022/09/13 15:39:43;;;;;;;;;;;;;;;;;;5041937;28;925;-72
2022/09/13 15:42:08;;;;;;;;;;;;;;;;;;5041508;28;1501;-71
2022/09/13 15:44:33;;;;;;;;;;;;;;;;;;5039332;28;1867;-71
2022/09/13 15:47:03;;;;;;;;;;;;;;;;;;5041407;28;1260;-71
2022/09/13 15:49:29;;;;;;;;;;;;;;;;;;5041307;28;846;-71
2022/09/13 15:51:56;;;;;;;;;;;;;;;;;;5041344;28;926;-71
2022/09/13 15:54:24;;;;;;;;;;;;;;;;;;5040804;28;1280;-71
2022/09/13 15:56:52;;;;;;;;;;;;;;;;;;5040693;28;1526;-72
2022/09/13 15:59:18;;;;;;;;;;;;;;;;;;5072486;22;2068;-78
2022/09/13 16:01:44;;;;;;;;;;;;;;;;;;5061836;28;775;-78
2022/09/13 16:04:09;;;;;;;;;;;;;;;;;;5043451;28;1443;-78
2022/09/13 16:06:35;;;;;;;;;;;;;;;;;;5060832;28;1910;-78
2022/09/13 16:09:01;;;;;;;;;;;;;;;;;;5060785;28;1574;-78
2022/09/13 16:11:26;;;;;;;;;;;;;;;;;;5061491;28;846;-78
2022/09/13 16:13:51;;;;;;;;;;;;;;;;;;5061280;28;910;-78
2022/09/13 16:16:17;;;;;;;;;;;;;;;;;;5055251;28;1539;-78
2022/09/13 16:18:42;;;;;;;;;;;;;;;;;;5041541;28;1184;-78
2022/09/13 16:21:07;;;;;;;;;;;;;;;;;;5049122;28;1017;-79
2022/09/13 16:23:32;;;;;;;;;;;;;;;;;;5048266;28;1516;-79
2022/09/13 16:25:58;;;;;;;;;;;;;;;;;;5041674;28;1894;-78
2022/09/13 16:28:24;;;;;;;;;;;;;;;;;;5041400;28;1287;-78
2022/09/13 16:30:49;;;;;;;;;;;;;;;;;;5041176;28;1005;-78
2022/09/13 16:33:14;;;;;;;;;;;;;;;;;;5041337;28;1575;-78
2022/09/13 16:35:40;;;;;;;;;;;;;;;;;;5040312;28;1060;-78
2022/09/13 16:38:05;;;;;;;;;;;;;;;;;;5041122;28;1254;-78
2022/09/13 16:40:30;;;;;;;;;;;;;;;;;;5042307;28;1445;-78
2022/09/13 16:42:56;;;;;;;;;;;;;;;;;;5041014;28;1007;-76
2022/09/13 16:45:21;;;;;;;;;;;;;;;;;;5040171;28;1894;-76
2022/09/13 16:47:46;;;;;;;;;;;;;;;;;;5040819;28;1248;-76
2022/09/13 16:50:12;;;;;;;;;;;;;;;;;;5040968;28;826;-77
2022/09/13 16:52:37;;;;;;;;;;;;;;;;;;5040917;28;850;-77
2022/09/13 16:55:03;;;;;;;;;;;;;;;;;;5051820;28;1468;-77
2022/09/13 16:57:29;;;;;;;;;;;;;;;;;;5060595;28;1250;-78
2022/09/13 16:59:57;;;;;;;;;;;;;;;;;;5060793;28;857;-78
2022/09/13 17:02:22;;;;;;;;;;;;;;;;;;5060448;28;1535;-77
2022/09/13 17:04:47;;;;;;;;;;;;;;;;;;5060021;28;1945;-78
2022/09/13 17:07:13;;;;;;;;;;;;;;;;;;5060618;28;1262;-77
2022/09/13 17:09:39;;;;;;;;;;;;;;;;;;5046514;28;1417;-77
2022/09/13 17:12:05;;;;;;;;;;;;;;;;;;5040697;28;1582;-77
2022/09/13 17:14:31;;;;;;;;;;;;;;;;;;5039832;28;898;-78
2022/09/13 17:16:56;;;;;;;;;;;;;;;;;;5040654;28;950;-77
2022/09/13 17:19:23;;;;;;;;;;;;;;;;;;5040555;28;922;-77
2022/09/13 17:21:48;;;;;;;;;;;;;;;;;;5040623;28;922;-78
2022/09/13 17:24:14;;;;;;;;;;;;;;;;;;5058862;28;1559;-79
2022/09/13 17:26:40;;;;;;;;;;;;;;;;;;5059684;28;1906;-79